sensor_id;sensor_type;location;lat;lon;timestamp;P1;durP1;ratioP1;P2;durP2;ratioP2
81160;SDS011;70637;48.514;14.500;2024-03-02T00:00:13;5.10;;;3.63;;
81160;SDS011;70637;48.514;14.500;2024-03-02T00:02:44;5.65;;;3.88;;
81160;SDS011;70637;48.514;14.500;2024-03-02T00:05:12;5.05;;;3.63;;
81160;SDS011;70637;48.514;14.500;2024-03-02T00:07:43;4.60;;;3.42;;
81160;SDS011;70637;48.514;14.500;2024-03-02T00:10:10;5.80;;;3.67;;
81160;SDS011;70637;48.514;14.500;2024-03-02T00:12:37;5.53;;;3.00;;
81160;SDS011;70637;48.514;14.500;2024-03-02T00:15:47;5.13;;;3.30;;
81160;SDS011;70637;48.514;14.500;2024-03-02T00:17:53;4.32;;;3.15;;
81160;SDS011;70637;48.514;14.500;2024-03-02T00:20:20;4.70;;;3.50;;
81160;SDS011;70637;48.514;14.500;2024-03-02T00:22:47;4.90;;;3.35;;
81160;SDS011;70637;48.514;14.500;2024-03-02T00:25:13;4.65;;;3.40;;
81160;SDS011;70637;48.514;14.500;2024-03-02T00:27:39;4.00;;;3.28;;
81160;SDS011;70637;48.514;14.500;2024-03-02T00:30:06;4.78;;;3.40;;
81160;SDS011;70637;48.514;14.500;2024-03-02T00:33:09;6.00;;;3.38;;
81160;SDS011;70637;48.514;14.500;2024-03-02T00:35:35;5.25;;;3.28;;
81160;SDS011;70637;48.514;14.500;2024-03-02T00:38:05;4.88;;;3.22;;
81160;SDS011;70637;48.514;14.500;2024-03-02T00:40:31;4.30;;;3.30;;
81160;SDS011;70637;48.514;14.500;2024-03-02T00:42:57;4.85;;;3.42;;
81160;SDS011;70637;48.514;14.500;2024-03-02T00:45:23;4.53;;;3.10;;
81160;SDS011;70637;48.514;14.500;2024-03-02T00:47:50;4.93;;;3.40;;
81160;SDS011;70637;48.514;14.500;2024-03-02T00:50:16;4.85;;;3.50;;
81160;SDS011;70637;48.514;14.500;2024-03-02T00:52:42;4.82;;;3.53;;
81160;SDS011;70637;48.514;14.500;2024-03-02T00:55:08;4.65;;;3.40;;
81160;SDS011;70637;48.514;14.500;2024-03-02T00:57:34;4.45;;;3.28;;
81160;SDS011;70637;48.514;14.500;2024-03-02T01:00:00;5.40;;;3.28;;
81160;SDS011;70637;48.514;14.500;2024-03-02T01:02:26;5.20;;;3.47;;
81160;SDS011;70637;48.514;14.500;2024-03-02T01:04:52;4.45;;;3.45;;
81160;SDS011;70637;48.514;14.500;2024-03-02T01:07:17;3.92;;;3.10;;
81160;SDS011;70637;48.514;14.500;2024-03-02T01:09:43;4.88;;;3.40;;
81160;SDS011;70637;48.514;14.500;2024-03-02T01:12:10;3.88;;;3.05;;
81160;SDS011;70637;48.514;14.500;2024-03-02T01:14:35;6.15;;;3.33;;
81160;SDS011;70637;48.514;14.500;2024-03-02T01:17:01;4.38;;;2.72;;
81160;SDS011;70637;48.514;14.500;2024-03-02T01:19:29;4.32;;;3.22;;
81160;SDS011;70637;48.514;14.500;2024-03-02T01:21:55;5.30;;;3.35;;
81160;SDS011;70637;48.514;14.500;2024-03-02T01:24:21;5.15;;;3.22;;
81160;SDS011;70637;48.514;14.500;2024-03-02T01:26:46;5.28;;;3.47;;
81160;SDS011;70637;48.514;14.500;2024-03-02T01:29:12;4.45;;;3.20;;
81160;SDS011;70637;48.514;14.500;2024-03-02T01:31:37;4.75;;;3.30;;
81160;SDS011;70637;48.514;14.500;2024-03-02T01:34:07;5.00;;;3.38;;
81160;SDS011;70637;48.514;14.500;2024-03-02T01:36:32;5.20;;;3.47;;
81160;SDS011;70637;48.514;14.500;2024-03-02T01:38:58;4.30;;;3.08;;
81160;SDS011;70637;48.514;14.500;2024-03-02T01:41:24;6.57;;;2.90;;
81160;SDS011;70637;48.514;14.500;2024-03-02T01:43:50;4.18;;;3.05;;
81160;SDS011;70637;48.514;14.500;2024-03-02T01:46:16;6.25;;;3.55;;
81160;SDS011;70637;48.514;14.500;2024-03-02T01:48:42;3.42;;;2.97;;
81160;SDS011;70637;48.514;14.500;2024-03-02T01:51:08;3.80;;;3.30;;
81160;SDS011;70637;48.514;14.500;2024-03-02T01:53:34;4.53;;;3.35;;
81160;SDS011;70637;48.514;14.500;2024-03-02T01:56:00;5.53;;;3.45;;
81160;SDS011;70637;48.514;14.500;2024-03-02T01:58:26;4.18;;;3.10;;
81160;SDS011;70637;48.514;14.500;2024-03-02T02:00:52;3.95;;;3.00;;
81160;SDS011;70637;48.514;14.500;2024-03-02T02:03:18;4.20;;;2.92;;
81160;SDS011;70637;48.514;14.500;2024-03-02T02:05:44;4.10;;;3.10;;
81160;SDS011;70637;48.514;14.500;2024-03-02T02:08:10;5.07;;;3.35;;
81160;SDS011;70637;48.514;14.500;2024-03-02T02:10:36;6.50;;;3.30;;
81160;SDS011;70637;48.514;14.500;2024-03-02T02:13:02;4.10;;;3.22;;
81160;SDS011;70637;48.514;14.500;2024-03-02T02:15:30;5.32;;;3.15;;
81160;SDS011;70637;48.514;14.500;2024-03-02T02:17:57;6.95;;;3.00;;
81160;SDS011;70637;48.514;14.500;2024-03-02T02:20:23;5.45;;;3.10;;
81160;SDS011;70637;48.514;14.500;2024-03-02T02:22:56;4.55;;;3.17;;
81160;SDS011;70637;48.514;14.500;2024-03-02T02:25:23;4.55;;;2.60;;
81160;SDS011;70637;48.514;14.500;2024-03-02T02:27:49;4.43;;;2.95;;
81160;SDS011;70637;48.514;14.500;2024-03-02T02:30:18;4.05;;;3.30;;
81160;SDS011;70637;48.514;14.500;2024-03-02T02:32:54;5.20;;;3.08;;
81160;SDS011;70637;48.514;14.500;2024-03-02T02:35:21;5.00;;;3.20;;
81160;SDS011;70637;48.514;14.500;2024-03-02T02:37:47;3.55;;;3.03;;
81160;SDS011;70637;48.514;14.500;2024-03-02T02:40:13;5.05;;;3.10;;
81160;SDS011;70637;48.514;14.500;2024-03-02T02:42:39;6.53;;;3.15;;
81160;SDS011;70637;48.514;14.500;2024-03-02T02:45:06;6.25;;;3.22;;
81160;SDS011;70637;48.514;14.500;2024-03-02T02:47:32;4.53;;;2.95;;
81160;SDS011;70637;48.514;14.500;2024-03-02T02:50:02;4.32;;;3.08;;
81160;SDS011;70637;48.514;14.500;2024-03-02T02:52:31;4.43;;;3.08;;
81160;SDS011;70637;48.514;14.500;2024-03-02T02:55:02;4.93;;;3.28;;
81160;SDS011;70637;48.514;14.500;2024-03-02T02:57:29;5.53;;;3.17;;
81160;SDS011;70637;48.514;14.500;2024-03-02T02:59:56;3.92;;;3.30;;
81160;SDS011;70637;48.514;14.500;2024-03-02T03:02:22;4.65;;;3.00;;
81160;SDS011;70637;48.514;14.500;2024-03-02T03:04:47;3.20;;;2.90;;
81160;SDS011;70637;48.514;14.500;2024-03-02T03:07:13;3.70;;;2.70;;
81160;SDS011;70637;48.514;14.500;2024-03-02T03:09:39;5.45;;;3.17;;
81160;SDS011;70637;48.514;14.500;2024-03-02T03:12:04;4.63;;;3.30;;
81160;SDS011;70637;48.514;14.500;2024-03-02T03:14:30;4.47;;;2.83;;
81160;SDS011;70637;48.514;14.500;2024-03-02T03:16:56;4.78;;;2.85;;
81160;SDS011;70637;48.514;14.500;2024-03-02T03:19:21;4.28;;;2.97;;
81160;SDS011;70637;48.514;14.500;2024-03-02T03:21:47;4.63;;;2.83;;
81160;SDS011;70637;48.514;14.500;2024-03-02T03:24:13;3.92;;;2.83;;
81160;SDS011;70637;48.514;14.500;2024-03-02T03:26:38;3.95;;;3.13;;
81160;SDS011;70637;48.514;14.500;2024-03-02T03:29:04;4.35;;;2.85;;
81160;SDS011;70637;48.514;14.500;2024-03-02T03:31:29;3.75;;;3.00;;
81160;SDS011;70637;48.514;14.500;2024-03-02T03:33:55;4.80;;;2.70;;
81160;SDS011;70637;48.514;14.500;2024-03-02T03:36:21;5.03;;;3.50;;
81160;SDS011;70637;48.514;14.500;2024-03-02T03:38:46;3.72;;;2.90;;
81160;SDS011;70637;48.514;14.500;2024-03-02T03:41:13;3.50;;;2.80;;
81160;SDS011;70637;48.514;14.500;2024-03-02T03:43:39;3.83;;;2.92;;
81160;SDS011;70637;48.514;14.500;2024-03-02T16:42:11;4.28;;;3.60;;
81160;SDS011;70637;48.514;14.500;2024-03-02T16:44:37;5.07;;;3.50;;
81160;SDS011;70637;48.514;14.500;2024-03-02T16:47:03;5.53;;;3.67;;
81160;SDS011;70637;48.514;14.500;2024-03-02T16:49:30;5.35;;;3.50;;
81160;SDS011;70637;48.514;14.500;2024-03-02T16:51:55;4.95;;;3.40;;
81160;SDS011;70637;48.514;14.500;2024-03-02T16:54:21;5.75;;;3.80;;
81160;SDS011;70637;48.514;14.500;2024-03-02T16:56:47;5.90;;;3.38;;
81160;SDS011;70637;48.514;14.500;2024-03-02T16:59:12;5.15;;;3.40;;
81160;SDS011;70637;48.514;14.500;2024-03-02T17:01:38;4.80;;;3.10;;
81160;SDS011;70637;48.514;14.500;2024-03-02T17:04:04;4.43;;;3.13;;
81160;SDS011;70637;48.514;14.500;2024-03-02T17:06:31;4.75;;;3.25;;
81160;SDS011;70637;48.514;14.500;2024-03-02T17:08:57;5.43;;;3.70;;
81160;SDS011;70637;48.514;14.500;2024-03-02T17:11:23;5.25;;;3.42;;
81160;SDS011;70637;48.514;14.500;2024-03-02T17:13:48;5.25;;;3.45;;
81160;SDS011;70637;48.514;14.500;2024-03-02T17:16:17;5.35;;;3.70;;
81160;SDS011;70637;48.514;14.500;2024-03-02T17:18:43;6.15;;;3.92;;
81160;SDS011;70637;48.514;14.500;2024-03-02T17:21:09;7.25;;;3.72;;
81160;SDS011;70637;48.514;14.500;2024-03-02T17:23:34;5.30;;;3.58;;
81160;SDS011;70637;48.514;14.500;2024-03-02T17:26:00;6.55;;;4.05;;
81160;SDS011;70637;48.514;14.500;2024-03-02T17:28:27;5.43;;;4.05;;
81160;SDS011;70637;48.514;14.500;2024-03-02T17:30:54;8.43;;;3.75;;
81160;SDS011;70637;48.514;14.500;2024-03-02T17:33:19;8.90;;;4.30;;
81160;SDS011;70637;48.514;14.500;2024-03-02T17:35:45;5.20;;;3.60;;
81160;SDS011;70637;48.514;14.500;2024-03-02T17:38:18;6.70;;;3.88;;
81160;SDS011;70637;48.514;14.500;2024-03-02T17:40:44;6.18;;;3.70;;
81160;SDS011;70637;48.514;14.500;2024-03-02T17:43:10;6.03;;;3.63;;
81160;SDS011;70637;48.514;14.500;2024-03-02T17:45:39;8.48;;;3.72;;
81160;SDS011;70637;48.514;14.500;2024-03-02T17:48:08;6.80;;;4.03;;
81160;SDS011;70637;48.514;14.500;2024-03-02T17:50:37;6.30;;;4.10;;
81160;SDS011;70637;48.514;14.500;2024-03-02T17:53:02;4.72;;;3.08;;
81160;SDS011;70637;48.514;14.500;2024-03-02T17:55:28;7.35;;;3.80;;
81160;SDS011;70637;48.514;14.500;2024-03-02T17:57:54;5.18;;;3.60;;
81160;SDS011;70637;48.514;14.500;2024-03-02T18:00:20;6.40;;;3.53;;
81160;SDS011;70637;48.514;14.500;2024-03-02T18:02:46;6.32;;;3.97;;
81160;SDS011;70637;48.514;14.500;2024-03-02T18:05:12;5.10;;;3.67;;
81160;SDS011;70637;48.514;14.500;2024-03-02T18:07:37;6.68;;;3.97;;
81160;SDS011;70637;48.514;14.500;2024-03-02T18:10:03;6.97;;;4.00;;
81160;SDS011;70637;48.514;14.500;2024-03-02T18:12:30;6.72;;;4.00;;
81160;SDS011;70637;48.514;14.500;2024-03-02T18:14:56;6.78;;;4.10;;
81160;SDS011;70637;48.514;14.500;2024-03-02T18:17:21;8.73;;;4.38;;
81160;SDS011;70637;48.514;14.500;2024-03-02T18:19:50;7.18;;;4.10;;
81160;SDS011;70637;48.514;14.500;2024-03-02T18:22:17;9.32;;;4.88;;
81160;SDS011;70637;48.514;14.500;2024-03-02T18:24:43;6.75;;;4.03;;
81160;SDS011;70637;48.514;14.500;2024-03-02T18:27:10;8.93;;;5.00;;
81160;SDS011;70637;48.514;14.500;2024-03-02T18:29:37;8.70;;;4.70;;
81160;SDS011;70637;48.514;14.500;2024-03-02T18:32:03;8.82;;;4.55;;
81160;SDS011;70637;48.514;14.500;2024-03-02T18:34:29;10.88;;;4.63;;
81160;SDS011;70637;48.514;14.500;2024-03-02T18:36:55;7.40;;;4.85;;
81160;SDS011;70637;48.514;14.500;2024-03-02T18:39:21;10.57;;;4.63;;
81160;SDS011;70637;48.514;14.500;2024-03-02T18:41:46;7.88;;;4.53;;
81160;SDS011;70637;48.514;14.500;2024-03-02T18:44:12;7.78;;;4.40;;
81160;SDS011;70637;48.514;14.500;2024-03-02T18:46:38;9.10;;;4.30;;
81160;SDS011;70637;48.514;14.500;2024-03-02T18:49:03;9.32;;;4.63;;
81160;SDS011;70637;48.514;14.500;2024-03-02T18:51:29;8.45;;;4.50;;
81160;SDS011;70637;48.514;14.500;2024-03-02T18:53:54;10.30;;;4.60;;
81160;SDS011;70637;48.514;14.500;2024-03-02T18:56:20;9.25;;;4.95;;
81160;SDS011;70637;48.514;14.500;2024-03-02T18:58:46;9.05;;;4.85;;
81160;SDS011;70637;48.514;14.500;2024-03-02T19:01:11;10.10;;;5.00;;
81160;SDS011;70637;48.514;14.500;2024-03-02T19:03:37;9.52;;;4.93;;
81160;SDS011;70637;48.514;14.500;2024-03-02T19:06:03;9.57;;;4.68;;
81160;SDS011;70637;48.514;14.500;2024-03-02T19:08:29;8.05;;;4.55;;
81160;SDS011;70637;48.514;14.500;2024-03-02T19:10:56;7.93;;;4.90;;
81160;SDS011;70637;48.514;14.500;2024-03-02T19:13:22;9.30;;;4.95;;
81160;SDS011;70637;48.514;14.500;2024-03-02T19:15:49;7.38;;;4.95;;
81160;SDS011;70637;48.514;14.500;2024-03-02T19:18:14;7.88;;;5.20;;
81160;SDS011;70637;48.514;14.500;2024-03-02T19:20:40;9.70;;;4.65;;
81160;SDS011;70637;48.514;14.500;2024-03-02T19:23:06;9.57;;;4.38;;
81160;SDS011;70637;48.514;14.500;2024-03-02T19:25:32;10.15;;;4.93;;
81160;SDS011;70637;48.514;14.500;2024-03-02T19:27:58;8.40;;;4.72;;
81160;SDS011;70637;48.514;14.500;2024-03-02T19:30:24;9.48;;;5.10;;
81160;SDS011;70637;48.514;14.500;2024-03-02T19:32:52;9.85;;;4.68;;
81160;SDS011;70637;48.514;14.500;2024-03-02T19:35:18;11.10;;;4.72;;
81160;SDS011;70637;48.514;14.500;2024-03-02T19:37:43;8.02;;;4.88;;
81160;SDS011;70637;48.514;14.500;2024-03-02T19:40:12;9.18;;;4.60;;
81160;SDS011;70637;48.514;14.500;2024-03-02T19:42:38;9.70;;;4.65;;
81160;SDS011;70637;48.514;14.500;2024-03-02T19:45:04;7.75;;;4.50;;
81160;SDS011;70637;48.514;14.500;2024-03-02T19:47:30;11.85;;;4.65;;
81160;SDS011;70637;48.514;14.500;2024-03-02T19:49:58;8.18;;;4.55;;
81160;SDS011;70637;48.514;14.500;2024-03-02T19:52:24;6.10;;;4.20;;
81160;SDS011;70637;48.514;14.500;2024-03-02T19:54:52;7.40;;;4.38;;
81160;SDS011;70637;48.514;14.500;2024-03-02T19:57:18;9.65;;;4.55;;
81160;SDS011;70637;48.514;14.500;2024-03-02T19:59:43;8.23;;;4.25;;
81160;SDS011;70637;48.514;14.500;2024-03-02T20:02:09;7.78;;;4.25;;
81160;SDS011;70637;48.514;14.500;2024-03-02T20:04:37;9.13;;;4.13;;
81160;SDS011;70637;48.514;14.500;2024-03-02T20:07:03;8.02;;;4.70;;
81160;SDS011;70637;48.514;14.500;2024-03-02T20:09:29;8.60;;;4.10;;
81160;SDS011;70637;48.514;14.500;2024-03-02T20:11:55;11.93;;;5.00;;
81160;SDS011;70637;48.514;14.500;2024-03-02T20:14:23;10.95;;;4.65;;
81160;SDS011;70637;48.514;14.500;2024-03-02T20:16:49;8.88;;;4.60;;
81160;SDS011;70637;48.514;14.500;2024-03-02T20:19:15;9.50;;;4.70;;
81160;SDS011;70637;48.514;14.500;2024-03-02T20:21:46;9.00;;;3.92;;
81160;SDS011;70637;48.514;14.500;2024-03-02T20:24:11;10.13;;;4.65;;
81160;SDS011;70637;48.514;14.500;2024-03-02T20:26:37;12.60;;;4.45;;
81160;SDS011;70637;48.514;14.500;2024-03-02T20:29:03;9.75;;;4.53;;
81160;SDS011;70637;48.514;14.500;2024-03-02T20:31:29;9.88;;;4.97;;
81160;SDS011;70637;48.514;14.500;2024-03-02T20:33:55;9.13;;;4.30;;
81160;SDS011;70637;48.514;14.500;2024-03-02T20:36:21;9.73;;;4.30;;
81160;SDS011;70637;48.514;14.500;2024-03-02T20:38:46;13.50;;;4.95;;
81160;SDS011;70637;48.514;14.500;2024-03-02T20:41:15;9.30;;;4.28;;
81160;SDS011;70637;48.514;14.500;2024-03-02T20:43:42;9.00;;;4.55;;
81160;SDS011;70637;48.514;14.500;2024-03-02T20:46:08;7.15;;;4.65;;
81160;SDS011;70637;48.514;14.500;2024-03-02T20:48:34;10.82;;;4.38;;
81160;SDS011;70637;48.514;14.500;2024-03-02T20:51:00;6.60;;;4.10;;
81160;SDS011;70637;48.514;14.500;2024-03-02T20:53:25;10.52;;;4.47;;
81160;SDS011;70637;48.514;14.500;2024-03-02T20:55:51;8.80;;;4.38;;
81160;SDS011;70637;48.514;14.500;2024-03-02T20:58:17;7.10;;;4.18;;
81160;SDS011;70637;48.514;14.500;2024-03-02T21:00:43;7.28;;;4.30;;
81160;SDS011;70637;48.514;14.500;2024-03-02T21:03:08;9.50;;;3.95;;
81160;SDS011;70637;48.514;14.500;2024-03-02T21:05:34;7.20;;;3.75;;
81160;SDS011;70637;48.514;14.500;2024-03-02T21:08:00;9.95;;;4.35;;
81160;SDS011;70637;48.514;14.500;2024-03-02T21:10:28;9.52;;;4.30;;
81160;SDS011;70637;48.514;14.500;2024-03-02T21:12:54;7.43;;;4.13;;
81160;SDS011;70637;48.514;14.500;2024-03-02T21:15:20;6.93;;;4.10;;
81160;SDS011;70637;48.514;14.500;2024-03-02T21:17:45;7.32;;;4.07;;
81160;SDS011;70637;48.514;14.500;2024-03-02T21:20:11;8.00;;;4.10;;
81160;SDS011;70637;48.514;14.500;2024-03-02T21:22:37;5.78;;;4.10;;
81160;SDS011;70637;48.514;14.500;2024-03-02T21:25:05;6.80;;;3.85;;
81160;SDS011;70637;48.514;14.500;2024-03-02T21:27:36;9.65;;;3.80;;
81160;SDS011;70637;48.514;14.500;2024-03-02T21:30:06;6.40;;;3.63;;
81160;SDS011;70637;48.514;14.500;2024-03-02T21:32:32;6.70;;;3.58;;
81160;SDS011;70637;48.514;14.500;2024-03-02T21:35:01;10.27;;;4.35;;
81160;SDS011;70637;48.514;14.500;2024-03-02T21:37:27;6.95;;;3.88;;
81160;SDS011;70637;48.514;14.500;2024-03-02T21:39:53;6.13;;;3.75;;
81160;SDS011;70637;48.514;14.500;2024-03-02T21:42:23;6.18;;;3.80;;
81160;SDS011;70637;48.514;14.500;2024-03-02T21:44:49;5.13;;;3.60;;
81160;SDS011;70637;48.514;14.500;2024-03-02T21:47:14;5.57;;;3.50;;
81160;SDS011;70637;48.514;14.500;2024-03-02T21:49:41;5.07;;;3.15;;
81160;SDS011;70637;48.514;14.500;2024-03-02T21:52:07;5.90;;;3.20;;
81160;SDS011;70637;48.514;14.500;2024-03-02T21:54:34;5.13;;;3.17;;
81160;SDS011;70637;48.514;14.500;2024-03-02T21:57:00;4.50;;;3.20;;
81160;SDS011;70637;48.514;14.500;2024-03-02T21:59:27;4.55;;;2.88;;
81160;SDS011;70637;48.514;14.500;2024-03-02T22:01:53;6.07;;;3.50;;
81160;SDS011;70637;48.514;14.500;2024-03-02T22:04:19;4.30;;;2.97;;
81160;SDS011;70637;48.514;14.500;2024-03-02T22:06:45;4.63;;;2.97;;
81160;SDS011;70637;48.514;14.500;2024-03-02T22:09:10;4.60;;;2.80;;
81160;SDS011;70637;48.514;14.500;2024-03-02T22:11:39;5.20;;;3.20;;
81160;SDS011;70637;48.514;14.500;2024-03-02T22:14:04;3.78;;;2.83;;
81160;SDS011;70637;48.514;14.500;2024-03-02T22:16:30;4.20;;;3.10;;
81160;SDS011;70637;48.514;14.500;2024-03-02T22:18:55;4.30;;;2.78;;
81160;SDS011;70637;48.514;14.500;2024-03-02T22:21:21;4.68;;;2.92;;
81160;SDS011;70637;48.514;14.500;2024-03-02T22:23:47;4.10;;;2.80;;
81160;SDS011;70637;48.514;14.500;2024-03-02T22:26:13;4.22;;;2.90;;
81160;SDS011;70637;48.514;14.500;2024-03-02T22:28:38;4.28;;;2.83;;
81160;SDS011;70637;48.514;14.500;2024-03-02T22:31:04;4.55;;;2.92;;
81160;SDS011;70637;48.514;14.500;2024-03-02T22:33:30;3.83;;;2.80;;
81160;SDS011;70637;48.514;14.500;2024-03-02T22:35:55;3.60;;;2.70;;
81160;SDS011;70637;48.514;14.500;2024-03-02T22:38:21;4.75;;;2.80;;
81160;SDS011;70637;48.514;14.500;2024-03-02T22:40:47;4.43;;;2.88;;
81160;SDS011;70637;48.514;14.500;2024-03-02T22:43:13;3.53;;;2.55;;
81160;SDS011;70637;48.514;14.500;2024-03-02T22:45:38;4.15;;;2.60;;
81160;SDS011;70637;48.514;14.500;2024-03-02T22:48:04;4.05;;;2.83;;
81160;SDS011;70637;48.514;14.500;2024-03-02T22:50:30;4.38;;;2.90;;
81160;SDS011;70637;48.514;14.500;2024-03-02T22:52:55;4.95;;;2.78;;
81160;SDS011;70637;48.514;14.500;2024-03-02T22:55:21;5.57;;;3.10;;
81160;SDS011;70637;48.514;14.500;2024-03-02T22:57:47;3.85;;;2.92;;
81160;SDS011;70637;48.514;14.500;2024-03-02T23:00:12;4.15;;;2.97;;
81160;SDS011;70637;48.514;14.500;2024-03-02T23:02:57;4.53;;;2.97;;
81160;SDS011;70637;48.514;14.500;2024-03-02T23:05:22;4.47;;;3.00;;
81160;SDS011;70637;48.514;14.500;2024-03-02T23:07:48;4.60;;;2.75;;
81160;SDS011;70637;48.514;14.500;2024-03-02T23:10:14;4.32;;;3.00;;
81160;SDS011;70637;48.514;14.500;2024-03-02T23:12:40;4.10;;;2.90;;
81160;SDS011;70637;48.514;14.500;2024-03-02T23:15:05;4.40;;;3.10;;
81160;SDS011;70637;48.514;14.500;2024-03-02T23:17:32;3.92;;;2.28;;
81160;SDS011;70637;48.514;14.500;2024-03-02T23:19:58;3.50;;;2.60;;
81160;SDS011;70637;48.514;14.500;2024-03-02T23:22:25;4.60;;;2.78;;
81160;SDS011;70637;48.514;14.500;2024-03-02T23:24:53;4.72;;;2.70;;
81160;SDS011;70637;48.514;14.500;2024-03-02T23:27:18;3.78;;;2.90;;
81160;SDS011;70637;48.514;14.500;2024-03-02T23:29:44;4.03;;;2.88;;
81160;SDS011;70637;48.514;14.500;2024-03-02T23:32:10;4.07;;;2.60;;
81160;SDS011;70637;48.514;14.500;2024-03-02T23:34:36;3.65;;;2.75;;
81160;SDS011;70637;48.514;14.500;2024-03-02T23:37:04;4.45;;;2.78;;
81160;SDS011;70637;48.514;14.500;2024-03-02T23:39:30;3.22;;;2.30;;
81160;SDS011;70637;48.514;14.500;2024-03-02T23:42:23;3.22;;;2.33;;
81160;SDS011;70637;48.514;14.500;2024-03-02T23:44:49;3.63;;;2.47;;
81160;SDS011;70637;48.514;14.500;2024-03-02T23:47:15;3.60;;;2.53;;
81160;SDS011;70637;48.514;14.500;2024-03-02T23:49:40;4.15;;;2.70;;
81160;SDS011;70637;48.514;14.500;2024-03-02T23:52:06;3.30;;;2.50;;
81160;SDS011;70637;48.514;14.500;2024-03-02T23:54:32;3.80;;;2.88;;
81160;SDS011;70637;48.514;14.500;2024-03-02T23:56:58;4.07;;;2.80;;
81160;SDS011;70637;48.514;14.500;2024-03-02T23:59:23;3.53;;;2.60;;
